sensor_id;sensor_type;location;lat;lon;timestamp;pressure;altitude;pressure_sealevel;temperature;humidity
11971;BME280;6045;42.682;23.294;2023-12-29T00:00:42;95289.00;;;6.18;74.42
11971;BME280;6045;42.682;23.294;2023-12-29T00:03:09;95291.66;;;6.18;74.20
11971;BME280;6045;42.682;23.294;2023-12-29T00:05:36;95286.72;;;6.15;74.57
11971;BME280;6045;42.682;23.294;2023-12-29T00:08:04;95286.09;;;6.13;74.48
11971;BME280;6045;42.682;23.294;2023-12-29T00:10:31;95287.13;;;6.12;74.71
11971;BME280;6045;42.682;23.294;2023-12-29T00:12:59;95282.19;;;6.09;74.93
11971;BME280;6045;42.682;23.294;2023-12-29T00:15:26;95276.50;;;6.12;74.97
11971;BME280;6045;42.682;23.294;2023-12-29T00:17:54;95274.66;;;6.12;74.57
11971;BME280;6045;42.682;23.294;2023-12-29T00:20:21;95280.16;;;6.11;74.54
11971;BME280;6045;42.682;23.294;2023-12-29T00:22:48;95277.22;;;6.06;74.40
11971;BME280;6045;42.682;23.294;2023-12-29T00:25:15;95290.69;;;6.04;74.76
11971;BME280;6045;42.682;23.294;2023-12-29T00:27:42;95288.41;;;6.01;74.51
11971;BME280;6045;42.682;23.294;2023-12-29T00:30:10;95274.69;;;5.98;74.58
11971;BME280;6045;42.682;23.294;2023-12-29T00:32:37;95280.56;;;5.93;74.74
11971;BME280;6045;42.682;23.294;2023-12-29T00:35:06;95276.34;;;5.84;75.22
11971;BME280;6045;42.682;23.294;2023-12-29T00:37:33;95279.06;;;5.76;75.69
11971;BME280;6045;42.682;23.294;2023-12-29T00:40:00;95275.97;;;5.73;76.61
11971;BME280;6045;42.682;23.294;2023-12-29T00:42:27;95278.44;;;5.74;76.24
11971;BME280;6045;42.682;23.294;2023-12-29T00:44:54;95265.34;;;5.73;75.86
11971;BME280;6045;42.682;23.294;2023-12-29T00:47:21;95261.69;;;5.74;75.60
11971;BME280;6045;42.682;23.294;2023-12-29T00:49:49;95267.00;;;5.74;75.86
11971;BME280;6045;42.682;23.294;2023-12-29T00:52:17;95270.03;;;5.71;75.83
11971;BME280;6045;42.682;23.294;2023-12-29T00:54:44;95273.31;;;5.73;75.92
11971;BME280;6045;42.682;23.294;2023-12-29T00:57:11;95263.72;;;5.72;75.67
11971;BME280;6045;42.682;23.294;2023-12-29T00:59:38;95274.69;;;5.69;76.07
11971;BME280;6045;42.682;23.294;2023-12-29T01:02:05;95272.66;;;5.71;76.23
11971;BME280;6045;42.682;23.294;2023-12-29T01:04:33;95269.84;;;5.72;75.59
11971;BME280;6045;42.682;23.294;2023-12-29T01:07:00;95269.03;;;5.72;75.12
11971;BME280;6045;42.682;23.294;2023-12-29T01:09:28;95257.13;;;5.68;75.19
11971;BME280;6045;42.682;23.294;2023-12-29T01:11:55;95261.63;;;5.67;75.94
11971;BME280;6045;42.682;23.294;2023-12-29T01:14:22;95270.22;;;5.69;76.06
11971;BME280;6045;42.682;23.294;2023-12-29T01:16:49;95271.47;;;5.73;75.25
11971;BME280;6045;42.682;23.294;2023-12-29T01:19:16;95269.03;;;5.72;75.08
11971;BME280;6045;42.682;23.294;2023-12-29T01:21:43;95276.34;;;5.70;75.12
11971;BME280;6045;42.682;23.294;2023-12-29T01:24:09;95276.91;;;5.65;74.96
11971;BME280;6045;42.682;23.294;2023-12-29T01:26:38;95277.25;;;5.62;74.99
11971;BME280;6045;42.682;23.294;2023-12-29T01:29:05;95272.50;;;5.58;74.72
11971;BME280;6045;42.682;23.294;2023-12-29T01:31:32;95272.03;;;5.54;75.40
11971;BME280;6045;42.682;23.294;2023-12-29T01:33:59;95271.94;;;5.47;75.21
11971;BME280;6045;42.682;23.294;2023-12-29T01:36:26;95275.59;;;5.46;75.69
11971;BME280;6045;42.682;23.294;2023-12-29T01:38:53;95279.97;;;5.39;75.96
11971;BME280;6045;42.682;23.294;2023-12-29T01:41:20;95282.44;;;5.26;76.68
11971;BME280;6045;42.682;23.294;2023-12-29T01:44:19;95278.97;;;5.26;76.99
11971;BME280;6045;42.682;23.294;2023-12-29T01:46:49;95276.22;;;5.19;77.13
11971;BME280;6045;42.682;23.294;2023-12-29T01:49:16;95270.81;;;5.13;77.18
11971;BME280;6045;42.682;23.294;2023-12-29T01:51:44;95274.09;;;5.00;78.13
11971;BME280;6045;42.682;23.294;2023-12-29T01:54:12;95279.66;;;5.05;78.33
11971;BME280;6045;42.682;23.294;2023-12-29T01:56:40;95269.50;;;4.94;78.62
11971;BME280;6045;42.682;23.294;2023-12-29T01:59:10;95267.94;;;4.85;79.44
11971;BME280;6045;42.682;23.294;2023-12-29T02:01:37;95266.28;;;4.84;79.28
11971;BME280;6045;42.682;23.294;2023-12-29T02:04:05;95253.78;;;4.78;80.05
11971;BME280;6045;42.682;23.294;2023-12-29T02:06:34;95247.16;;;4.74;80.37
11971;BME280;6045;42.682;23.294;2023-12-29T02:09:01;95248.25;;;4.65;80.92
11971;BME280;6045;42.682;23.294;2023-12-29T02:11:29;95252.16;;;4.69;81.31
11971;BME280;6045;42.682;23.294;2023-12-29T02:13:56;95239.88;;;4.76;80.50
11971;BME280;6045;42.682;23.294;2023-12-29T02:16:33;95231.94;;;4.76;79.78
11971;BME280;6045;42.682;23.294;2023-12-29T02:19:08;95230.19;;;4.83;79.37
11971;BME280;6045;42.682;23.294;2023-12-29T02:21:40;95228.09;;;4.78;79.29
11971;BME280;6045;42.682;23.294;2023-12-29T02:24:07;95226.84;;;4.89;79.39
11971;BME280;6045;42.682;23.294;2023-12-29T02:26:36;95232.97;;;4.90;78.34
11971;BME280;6045;42.682;23.294;2023-12-29T02:29:06;95226.22;;;4.87;78.52
11971;BME280;6045;42.682;23.294;2023-12-29T02:31:38;95230.50;;;4.88;79.00
11971;BME280;6045;42.682;23.294;2023-12-29T02:34:07;95223.84;;;4.92;79.42
11971;BME280;6045;42.682;23.294;2023-12-29T02:36:37;95224.84;;;4.91;78.97
11971;BME280;6045;42.682;23.294;2023-12-29T02:39:08;95223.47;;;4.95;78.77
11971;BME280;6045;42.682;23.294;2023-12-29T02:41:38;95216.34;;;4.96;78.24
11971;BME280;6045;42.682;23.294;2023-12-29T02:44:05;95215.09;;;4.92;78.81
11971;BME280;6045;42.682;23.294;2023-12-29T02:46:32;95204.28;;;4.93;78.95
11971;BME280;6045;42.682;23.294;2023-12-29T02:48:59;95205.22;;;5.00;78.35
11971;BME280;6045;42.682;23.294;2023-12-29T02:51:25;95202.28;;;4.95;77.33
11971;BME280;6045;42.682;23.294;2023-12-29T02:53:52;95198.66;;;4.96;77.23
11971;BME280;6045;42.682;23.294;2023-12-29T02:56:19;95196.53;;;4.92;77.18
11971;BME280;6045;42.682;23.294;2023-12-29T02:58:48;95199.34;;;4.90;76.95
11971;BME280;6045;42.682;23.294;2023-12-29T03:01:17;95203.03;;;4.89;77.16
11971;BME280;6045;42.682;23.294;2023-12-29T03:03:44;95196.06;;;4.88;77.14
11971;BME280;6045;42.682;23.294;2023-12-29T03:06:10;95189.56;;;4.76;77.62
11971;BME280;6045;42.682;23.294;2023-12-29T03:08:37;95192.13;;;4.69;77.96
11971;BME280;6045;42.682;23.294;2023-12-29T03:11:04;95185.19;;;4.68;78.00
11971;BME280;6045;42.682;23.294;2023-12-29T03:13:31;95183.81;;;4.72;78.45
11971;BME280;6045;42.682;23.294;2023-12-29T03:15:59;95182.16;;;4.71;78.20
11971;BME280;6045;42.682;23.294;2023-12-29T03:18:27;95182.00;;;4.73;78.06
11971;BME280;6045;42.682;23.294;2023-12-29T03:20:53;95175.06;;;4.72;78.17
11971;BME280;6045;42.682;23.294;2023-12-29T03:23:20;95179.16;;;4.74;78.09
11971;BME280;6045;42.682;23.294;2023-12-29T03:25:47;95182.44;;;4.76;77.87
11971;BME280;6045;42.682;23.294;2023-12-29T03:28:14;95182.28;;;4.78;77.72
11971;BME280;6045;42.682;23.294;2023-12-29T03:30:41;95177.97;;;4.77;77.50
11971;BME280;6045;42.682;23.294;2023-12-29T03:33:09;95177.69;;;4.72;77.35
11971;BME280;6045;42.682;23.294;2023-12-29T03:35:36;95175.94;;;4.64;77.76
11971;BME280;6045;42.682;23.294;2023-12-29T03:38:03;95171.63;;;4.49;78.51
11971;BME280;6045;42.682;23.294;2023-12-29T03:40:30;95172.75;;;4.32;80.00
11971;BME280;6045;42.682;23.294;2023-12-29T03:42:57;95165.00;;;4.30;80.25
11971;BME280;6045;42.682;23.294;2023-12-29T03:45:24;95178.34;;;4.37;80.16
11971;BME280;6045;42.682;23.294;2023-12-29T03:47:51;95179.38;;;4.36;79.81
11971;BME280;6045;42.682;23.294;2023-12-29T03:50:20;95184.28;;;4.39;79.58
11971;BME280;6045;42.682;23.294;2023-12-29T03:52:47;95188.41;;;4.41;79.03
11971;BME280;6045;42.682;23.294;2023-12-29T03:55:14;95187.56;;;4.41;78.68
11971;BME280;6045;42.682;23.294;2023-12-29T03:57:42;95183.44;;;4.38;78.50
11971;BME280;6045;42.682;23.294;2023-12-29T04:00:12;95191.22;;;4.40;78.53
11971;BME280;6045;42.682;23.294;2023-12-29T04:02:39;95187.56;;;4.41;78.47
11971;BME280;6045;42.682;23.294;2023-12-29T04:05:08;95183.28;;;4.40;78.23
11971;BME280;6045;42.682;23.294;2023-12-29T04:07:39;95193.25;;;4.38;78.15
11971;BME280;6045;42.682;23.294;2023-12-29T04:10:06;95179.00;;;4.39;78.30
11971;BME280;6045;42.682;23.294;2023-12-29T04:12:34;95181.19;;;4.35;78.44
11971;BME280;6045;42.682;23.294;2023-12-29T04:15:01;95187.66;;;4.33;78.56
11971;BME280;6045;42.682;23.294;2023-12-29T04:17:28;95184.19;;;4.32;79.22
11971;BME280;6045;42.682;23.294;2023-12-29T04:19:54;95188.09;;;4.36;79.41
11971;BME280;6045;42.682;23.294;2023-12-29T04:22:22;95189.56;;;4.39;78.23
11971;BME280;6045;42.682;23.294;2023-12-29T04:24:50;95186.59;;;4.42;78.08
11971;BME280;6045;42.682;23.294;2023-12-29T04:27:18;95178.84;;;4.40;77.59
11971;BME280;6045;42.682;23.294;2023-12-29T04:29:45;95180.16;;;4.36;77.68
11971;BME280;6045;42.682;23.294;2023-12-29T04:32:12;95184.66;;;4.36;77.69
11971;BME280;6045;42.682;23.294;2023-12-29T04:34:39;95179.72;;;4.33;78.06
11971;BME280;6045;42.682;23.294;2023-12-29T04:37:06;95183.06;;;4.27;77.68
11971;BME280;6045;42.682;23.294;2023-12-29T04:39:32;95194.66;;;4.26;78.71
11971;BME280;6045;42.682;23.294;2023-12-29T04:42:01;95189.16;;;4.27;78.91
11971;BME280;6045;42.682;23.294;2023-12-29T04:44:28;95188.97;;;4.29;78.99
11971;BME280;6045;42.682;23.294;2023-12-29T04:46:55;95197.41;;;4.32;78.39
11971;BME280;6045;42.682;23.294;2023-12-29T04:49:22;95200.69;;;4.34;77.83
11971;BME280;6045;42.682;23.294;2023-12-29T04:51:48;95198.78;;;4.28;78.10
11971;BME280;6045;42.682;23.294;2023-12-29T04:54:15;95196.75;;;4.30;77.76
11971;BME280;6045;42.682;23.294;2023-12-29T04:56:42;95187.81;;;4.31;77.61
11971;BME280;6045;42.682;23.294;2023-12-29T04:59:11;95179.88;;;4.31;77.76
11971;BME280;6045;42.682;23.294;2023-12-29T05:01:38;95178.59;;;4.27;77.95
11971;BME280;6045;42.682;23.294;2023-12-29T05:04:04;95177.47;;;4.22;77.98
11971;BME280;6045;42.682;23.294;2023-12-29T05:06:31;95178.47;;;4.21;78.54
11971;BME280;6045;42.682;23.294;2023-12-29T05:08:58;95178.28;;;4.22;78.83
11971;BME280;6045;42.682;23.294;2023-12-29T05:11:25;95173.66;;;4.24;78.98
11971;BME280;6045;42.682;23.294;2023-12-29T05:13:52;95168.66;;;4.29;79.16
11971;BME280;6045;42.682;23.294;2023-12-29T05:16:20;95167.66;;;4.30;78.83
11971;BME280;6045;42.682;23.294;2023-12-29T05:18:47;95165.66;;;4.32;77.87
11971;BME280;6045;42.682;23.294;2023-12-29T05:21:15;95167.47;;;4.32;77.83
11971;BME280;6045;42.682;23.294;2023-12-29T05:23:43;95163.19;;;4.31;77.57
11971;BME280;6045;42.682;23.294;2023-12-29T05:26:10;95176.44;;;4.31;77.34
11971;BME280;6045;42.682;23.294;2023-12-29T05:28:37;95172.47;;;4.27;77.51
11971;BME280;6045;42.682;23.294;2023-12-29T05:31:04;95168.53;;;4.23;77.68
11971;BME280;6045;42.682;23.294;2023-12-29T05:33:33;95177.84;;;4.19;77.63
11971;BME280;6045;42.682;23.294;2023-12-29T05:36:06;95173.25;;;4.12;77.84
11971;BME280;6045;42.682;23.294;2023-12-29T05:38:34;95177.72;;;4.12;78.06
11971;BME280;6045;42.682;23.294;2023-12-29T05:41:01;95174.16;;;4.05;78.22
11971;BME280;6045;42.682;23.294;2023-12-29T05:43:30;95181.41;;;4.03;78.51
11971;BME280;6045;42.682;23.294;2023-12-29T05:45:58;95182.97;;;3.97;78.63
11971;BME280;6045;42.682;23.294;2023-12-29T05:48:25;95178.66;;;3.96;78.66
11971;BME280;6045;42.682;23.294;2023-12-29T05:50:53;95189.94;;;3.90;78.50
11971;BME280;6045;42.682;23.294;2023-12-29T05:53:20;95178.06;;;3.86;78.88
11971;BME280;6045;42.682;23.294;2023-12-29T05:55:47;95166.13;;;4.73;96.20
11971;BME280;6045;42.682;23.294;2023-12-29T05:58:14;95168.78;;;5.17;98.86
11971;BME280;6045;42.682;23.294;2023-12-29T06:00:41;95178.00;;;5.35;95.63
11971;BME280;6045;42.682;23.294;2023-12-29T06:03:09;95166.69;;;5.12;83.85
11971;BME280;6045;42.682;23.294;2023-12-29T06:05:36;95173.69;;;4.76;80.26
11971;BME280;6045;42.682;23.294;2023-12-29T06:08:06;95168.53;;;4.60;79.93
11971;BME280;6045;42.682;23.294;2023-12-29T06:10:32;95168.63;;;4.52;79.49
11971;BME280;6045;42.682;23.294;2023-12-29T06:13:01;95164.34;;;4.51;79.57
11971;BME280;6045;42.682;23.294;2023-12-29T06:15:28;95165.72;;;4.61;78.54
11971;BME280;6045;42.682;23.294;2023-12-29T06:17:56;95173.97;;;4.81;77.80
11971;BME280;6045;42.682;23.294;2023-12-29T06:20:23;95167.16;;;5.16;76.14
11971;BME280;6045;42.682;23.294;2023-12-29T06:22:50;95171.78;;;5.28;75.30
11971;BME280;6045;42.682;23.294;2023-12-29T06:25:18;95174.84;;;5.61;74.54
11971;BME280;6045;42.682;23.294;2023-12-29T06:27:45;95183.81;;;6.32;72.64
11971;BME280;6045;42.682;23.294;2023-12-29T06:30:13;95175.69;;;7.50;85.14
11971;BME280;6045;42.682;23.294;2023-12-29T06:32:40;95172.66;;;8.14;74.02
11971;BME280;6045;42.682;23.294;2023-12-29T06:35:08;95183.84;;;8.57;66.30
11971;BME280;6045;42.682;23.294;2023-12-29T06:37:36;95173.59;;;9.06;65.78
11971;BME280;6045;42.682;23.294;2023-12-29T06:40:04;95175.06;;;9.73;63.68
11971;BME280;6045;42.682;23.294;2023-12-29T06:42:33;95173.69;;;10.08;59.68
11971;BME280;6045;42.682;23.294;2023-12-29T06:45:00;95182.34;;;10.41;57.75
11971;BME280;6045;42.682;23.294;2023-12-29T06:47:27;95166.31;;;10.72;56.67
11971;BME280;6045;42.682;23.294;2023-12-29T06:49:54;95181.34;;;10.98;56.05
11971;BME280;6045;42.682;23.294;2023-12-29T06:52:22;95167.41;;;11.57;54.74
11971;BME280;6045;42.682;23.294;2023-12-29T06:54:49;95157.13;;;12.08;52.84
11971;BME280;6045;42.682;23.294;2023-12-29T06:57:16;95170.50;;;12.56;51.11
11971;BME280;6045;42.682;23.294;2023-12-29T06:59:45;95177.38;;;12.93;49.77
11971;BME280;6045;42.682;23.294;2023-12-29T07:02:12;95175.44;;;13.12;48.64
11971;BME280;6045;42.682;23.294;2023-12-29T07:04:41;95177.09;;;13.36;47.56
11971;BME280;6045;42.682;23.294;2023-12-29T07:07:08;95173.50;;;13.65;46.79
11971;BME280;6045;42.682;23.294;2023-12-29T07:09:38;95173.69;;;13.99;45.92
11971;BME280;6045;42.682;23.294;2023-12-29T07:12:05;95169.31;;;14.09;45.67
11971;BME280;6045;42.682;23.294;2023-12-29T07:14:32;95170.97;;;14.10;45.01
11971;BME280;6045;42.682;23.294;2023-12-29T07:17:05;95169.47;;;14.43;45.29
11971;BME280;6045;42.682;23.294;2023-12-29T07:19:32;95177.88;;;14.91;43.87
11971;BME280;6045;42.682;23.294;2023-12-29T07:22:03;95165.94;;;15.32;42.26
11971;BME280;6045;42.682;23.294;2023-12-29T07:24:30;95150.69;;;15.54;41.85
11971;BME280;6045;42.682;23.294;2023-12-29T07:26:57;95158.13;;;16.07;40.91
11971;BME280;6045;42.682;23.294;2023-12-29T07:29:24;95147.91;;;16.30;40.26
11971;BME280;6045;42.682;23.294;2023-12-29T07:31:51;95141.63;;;16.47;39.72
11971;BME280;6045;42.682;23.294;2023-12-29T07:34:20;95141.53;;;16.15;40.81
11971;BME280;6045;42.682;23.294;2023-12-29T07:36:46;95143.91;;;16.11;40.73
11971;BME280;6045;42.682;23.294;2023-12-29T07:39:13;95148.16;;;16.51;39.25
11971;BME280;6045;42.682;23.294;2023-12-29T07:41:41;95144.03;;;16.65;38.83
11971;BME280;6045;42.682;23.294;2023-12-29T07:44:10;95143.09;;;17.13;38.61
11971;BME280;6045;42.682;23.294;2023-12-29T07:46:37;95149.06;;;17.46;38.26
11971;BME280;6045;42.682;23.294;2023-12-29T07:49:05;95152.53;;;17.78;37.62
11971;BME280;6045;42.682;23.294;2023-12-29T07:51:33;95160.44;;;17.90;36.54
11971;BME280;6045;42.682;23.294;2023-12-29T07:54:00;95159.66;;;17.95;36.45
11971;BME280;6045;42.682;23.294;2023-12-29T07:56:27;95160.63;;;18.25;36.27
11971;BME280;6045;42.682;23.294;2023-12-29T07:58:54;95156.56;;;18.18;35.97
11971;BME280;6045;42.682;23.294;2023-12-29T08:01:21;95163.69;;;18.39;35.56
11971;BME280;6045;42.682;23.294;2023-12-29T08:03:48;95163.13;;;18.32;35.59
11971;BME280;6045;42.682;23.294;2023-12-29T08:06:15;95164.84;;;18.53;35.43
11971;BME280;6045;42.682;23.294;2023-12-29T08:08:43;95158.16;;;18.81;34.62
11971;BME280;6045;42.682;23.294;2023-12-29T08:11:13;95164.44;;;19.01;34.27
11971;BME280;6045;42.682;23.294;2023-12-29T08:13:42;95163.28;;;18.77;34.47
11971;BME280;6045;42.682;23.294;2023-12-29T08:16:09;95163.84;;;18.79;34.60
11971;BME280;6045;42.682;23.294;2023-12-29T08:18:36;95161.66;;;18.71;35.02
11971;BME280;6045;42.682;23.294;2023-12-29T08:21:04;95167.63;;;18.78;34.11
11971;BME280;6045;42.682;23.294;2023-12-29T08:23:31;95158.88;;;18.46;34.50
11971;BME280;6045;42.682;23.294;2023-12-29T08:25:59;95156.16;;;18.46;34.26
11971;BME280;6045;42.682;23.294;2023-12-29T08:28:28;95163.16;;;18.37;35.26
11971;BME280;6045;42.682;23.294;2023-12-29T08:30:55;95169.53;;;18.21;35.08
11971;BME280;6045;42.682;23.294;2023-12-29T08:33:22;95164.13;;;18.16;34.31
11971;BME280;6045;42.682;23.294;2023-12-29T08:36:05;95167.84;;;18.05;35.82
11971;BME280;6045;42.682;23.294;2023-12-29T08:38:34;95168.72;;;17.68;35.20
11971;BME280;6045;42.682;23.294;2023-12-29T08:41:02;95172.81;;;17.71;34.49
11971;BME280;6045;42.682;23.294;2023-12-29T08:43:30;95172.03;;;17.81;34.93
11971;BME280;6045;42.682;23.294;2023-12-29T08:45:57;95161.94;;;18.13;34.92
11971;BME280;6045;42.682;23.294;2023-12-29T08:48:26;95166.03;;;18.15;34.48
11971;BME280;6045;42.682;23.294;2023-12-29T08:50:53;95166.06;;;18.20;34.07
11971;BME280;6045;42.682;23.294;2023-12-29T08:53:20;95164.44;;;18.24;34.33
11971;BME280;6045;42.682;23.294;2023-12-29T08:55:47;95165.38;;;18.50;33.87
11971;BME280;6045;42.682;23.294;2023-12-29T08:58:15;95180.84;;;18.60;33.97
11971;BME280;6045;42.682;23.294;2023-12-29T09:00:42;95173.00;;;18.58;33.85
11971;BME280;6045;42.682;23.294;2023-12-29T09:03:10;95172.19;;;18.06;34.34
11971;BME280;6045;42.682;23.294;2023-12-29T09:05:36;95175.66;;;17.96;35.12
11971;BME280;6045;42.682;23.294;2023-12-29T09:08:04;95176.59;;;18.22;34.73
11971;BME280;6045;42.682;23.294;2023-12-29T09:10:31;95178.78;;;19.02;33.80
11971;BME280;6045;42.682;23.294;2023-12-29T09:12:58;95171.00;;;19.46;33.61
11971;BME280;6045;42.682;23.294;2023-12-29T09:15:27;95167.47;;;19.81;32.57
11971;BME280;6045;42.682;23.294;2023-12-29T09:17:54;95166.00;;;20.23;32.47
11971;BME280;6045;42.682;23.294;2023-12-29T09:20:21;95161.69;;;20.22;32.55
11971;BME280;6045;42.682;23.294;2023-12-29T09:22:48;95157.97;;;19.63;33.16
11971;BME280;6045;42.682;23.294;2023-12-29T09:25:15;95154.41;;;19.27;34.57
11971;BME280;6045;42.682;23.294;2023-12-29T09:27:44;95140.00;;;18.71;35.13
11971;BME280;6045;42.682;23.294;2023-12-29T09:30:13;95132.97;;;18.85;34.21
11971;BME280;6045;42.682;23.294;2023-12-29T09:32:44;95131.03;;;18.66;35.16
11971;BME280;6045;42.682;23.294;2023-12-29T09:35:12;95142.47;;;18.93;58.54
11971;BME280;6045;42.682;23.294;2023-12-29T09:37:39;95131.84;;;20.07;43.11
11971;BME280;6045;42.682;23.294;2023-12-29T09:40:07;95128.50;;;20.89;44.88
11971;BME280;6045;42.682;23.294;2023-12-29T09:42:35;95123.63;;;21.30;37.20
11971;BME280;6045;42.682;23.294;2023-12-29T09:45:31;95130.66;;;21.65;34.34
11971;BME280;6045;42.682;23.294;2023-12-29T09:51:34;95123.94;;;21.57;32.41
11971;BME280;6045;42.682;23.294;2023-12-29T09:54:02;95117.63;;;21.33;31.96
11971;BME280;6045;42.682;23.294;2023-12-29T09:56:29;95122.69;;;21.01;32.86
11971;BME280;6045;42.682;23.294;2023-12-29T09:58:57;95114.09;;;21.33;33.39
11971;BME280;6045;42.682;23.294;2023-12-29T10:01:25;95112.28;;;21.52;32.22
11971;BME280;6045;42.682;23.294;2023-12-29T10:03:55;95105.19;;;21.22;33.63
11971;BME280;6045;42.682;23.294;2023-12-29T10:06:24;95097.91;;;21.46;32.00
11971;BME280;6045;42.682;23.294;2023-12-29T10:08:54;95093.81;;;21.15;32.96
11971;BME280;6045;42.682;23.294;2023-12-29T10:11:22;95095.94;;;21.23;34.51
11971;BME280;6045;42.682;23.294;2023-12-29T10:13:53;95096.50;;;21.54;34.04
11971;BME280;6045;42.682;23.294;2023-12-29T10:16:30;95091.31;;;21.81;32.25
11971;BME280;6045;42.682;23.294;2023-12-29T10:19:08;95086.84;;;22.19;32.76
11971;BME280;6045;42.682;23.294;2023-12-29T10:21:42;95078.66;;;22.19;31.43
11971;BME280;6045;42.682;23.294;2023-12-29T10:24:17;95074.13;;;22.33;30.43
11971;BME280;6045;42.682;23.294;2023-12-29T10:26:44;95073.09;;;22.71;31.74
11971;BME280;6045;42.682;23.294;2023-12-29T10:29:12;95058.84;;;22.56;30.43
11971;BME280;6045;42.682;23.294;2023-12-29T10:31:39;95060.63;;;22.46;31.12
11971;BME280;6045;42.682;23.294;2023-12-29T10:34:17;95059.69;;;22.93;31.76
11971;BME280;6045;42.682;23.294;2023-12-29T10:36:47;95064.25;;;22.98;30.22
11971;BME280;6045;42.682;23.294;2023-12-29T10:39:18;95048.03;;;23.06;30.90
11971;BME280;6045;42.682;23.294;2023-12-29T10:41:45;95034.75;;;23.51;29.52
11971;BME280;6045;42.682;23.294;2023-12-29T10:44:12;95040.28;;;23.13;30.96
11971;BME280;6045;42.682;23.294;2023-12-29T10:46:39;95034.72;;;22.86;31.74
11971;BME280;6045;42.682;23.294;2023-12-29T10:49:07;95020.59;;;23.17;32.66
11971;BME280;6045;42.682;23.294;2023-12-29T10:51:35;95023.00;;;23.37;30.51
11971;BME280;6045;42.682;23.294;2023-12-29T10:54:03;95020.34;;;23.77;31.36
11971;BME280;6045;42.682;23.294;2023-12-29T10:56:32;95005.91;;;24.18;30.86
11971;BME280;6045;42.682;23.294;2023-12-29T10:59:00;95009.13;;;24.83;27.36
11971;BME280;6045;42.682;23.294;2023-12-29T11:01:28;95006.34;;;25.19;28.88
11971;BME280;6045;42.682;23.294;2023-12-29T11:04:00;95004.28;;;25.24;28.31
11971;BME280;6045;42.682;23.294;2023-12-29T11:06:27;94999.66;;;24.53;28.95
11971;BME280;6045;42.682;23.294;2023-12-29T11:08:55;94998.59;;;24.76;27.53
11971;BME280;6045;42.682;23.294;2023-12-29T11:11:23;94984.50;;;24.83;28.54
11971;BME280;6045;42.682;23.294;2023-12-29T11:13:53;94987.66;;;24.76;27.80
11971;BME280;6045;42.682;23.294;2023-12-29T11:16:23;94985.53;;;24.87;27.21
11971;BME280;6045;42.682;23.294;2023-12-29T11:18:51;94991.38;;;24.94;28.82
11971;BME280;6045;42.682;23.294;2023-12-29T11:21:22;94982.88;;;25.04;27.89
11971;BME280;6045;42.682;23.294;2023-12-29T11:23:50;94983.25;;;25.11;27.42
11971;BME280;6045;42.682;23.294;2023-12-29T11:26:17;94980.75;;;25.23;27.62
11971;BME280;6045;42.682;23.294;2023-12-29T11:28:46;94985.78;;;24.99;27.57
11971;BME280;6045;42.682;23.294;2023-12-29T11:31:16;94988.34;;;25.04;27.23
11971;BME280;6045;42.682;23.294;2023-12-29T11:33:45;94979.41;;;25.12;27.39
11971;BME280;6045;42.682;23.294;2023-12-29T11:36:17;94973.25;;;24.48;27.15
11971;BME280;6045;42.682;23.294;2023-12-29T11:38:53;94974.13;;;24.58;28.53
11971;BME280;6045;42.682;23.294;2023-12-29T11:41:30;94968.84;;;25.19;26.96
11971;BME280;6045;42.682;23.294;2023-12-29T11:43:59;94965.19;;;25.32;26.71
11971;BME280;6045;42.682;23.294;2023-12-29T11:46:34;94959.28;;;24.86;27.38
11971;BME280;6045;42.682;23.294;2023-12-29T11:49:01;94956.50;;;25.52;25.77
11971;BME280;6045;42.682;23.294;2023-12-29T11:51:34;94962.72;;;25.44;27.32
11971;BME280;6045;42.682;23.294;2023-12-29T11:54:02;94960.19;;;25.87;25.57
11971;BME280;6045;42.682;23.294;2023-12-29T11:56:35;94962.09;;;25.87;25.29
11971;BME280;6045;42.682;23.294;2023-12-29T11:59:15;94957.47;;;25.56;27.09
11971;BME280;6045;42.682;23.294;2023-12-29T12:01:45;94954.72;;;25.96;25.83
11971;BME280;6045;42.682;23.294;2023-12-29T12:04:35;94951.66;;;25.58;25.73
11971;BME280;6045;42.682;23.294;2023-12-29T12:07:03;94941.50;;;24.39;26.93
11971;BME280;6045;42.682;23.294;2023-12-29T12:09:31;94944.31;;;24.12;26.95
11971;BME280;6045;42.682;23.294;2023-12-29T12:12:00;94939.53;;;24.17;27.10
11971;BME280;6045;42.682;23.294;2023-12-29T12:14:51;94933.16;;;23.95;27.16
11971;BME280;6045;42.682;23.294;2023-12-29T12:17:29;94938.81;;;24.25;27.51
11971;BME280;6045;42.682;23.294;2023-12-29T12:19:58;94942.41;;;24.92;27.88
11971;BME280;6045;42.682;23.294;2023-12-29T12:22:25;94941.31;;;25.46;27.62
11971;BME280;6045;42.682;23.294;2023-12-29T12:24:56;94941.53;;;25.98;26.54
11971;BME280;6045;42.682;23.294;2023-12-29T12:27:25;94940.78;;;26.14;26.60
11971;BME280;6045;42.682;23.294;2023-12-29T12:30:11;94945.84;;;26.72;25.98
11971;BME280;6045;42.682;23.294;2023-12-29T12:32:39;94935.47;;;27.38;24.70
11971;BME280;6045;42.682;23.294;2023-12-29T12:35:13;94934.78;;;27.49;24.04
11971;BME280;6045;42.682;23.294;2023-12-29T12:37:41;94941.47;;;27.77;24.31
11971;BME280;6045;42.682;23.294;2023-12-29T12:40:09;94948.88;;;27.86;24.15
11971;BME280;6045;42.682;23.294;2023-12-29T12:42:38;94944.06;;;27.74;23.74
11971;BME280;6045;42.682;23.294;2023-12-29T12:45:11;94946.13;;;27.77;23.77
11971;BME280;6045;42.682;23.294;2023-12-29T12:47:43;94941.38;;;27.95;23.60
11971;BME280;6045;42.682;23.294;2023-12-29T12:50:11;94945.50;;;27.17;24.10
11971;BME280;6045;42.682;23.294;2023-12-29T12:52:39;94937.22;;;27.42;23.93
11971;BME280;6045;42.682;23.294;2023-12-29T12:55:08;94938.03;;;27.26;23.61
11971;BME280;6045;42.682;23.294;2023-12-29T12:57:35;94942.75;;;27.17;23.98
11971;BME280;6045;42.682;23.294;2023-12-29T13:00:07;94945.00;;;26.55;24.25
11971;BME280;6045;42.682;23.294;2023-12-29T13:02:36;94935.69;;;26.47;24.89
11971;BME280;6045;42.682;23.294;2023-12-29T13:05:05;94939.06;;;26.61;24.43
11971;BME280;6045;42.682;23.294;2023-12-29T13:07:33;94939.72;;;26.92;24.50
11971;BME280;6045;42.682;23.294;2023-12-29T13:10:01;94930.44;;;27.31;23.95
11971;BME280;6045;42.682;23.294;2023-12-29T13:12:29;94932.88;;;27.41;23.94
11971;BME280;6045;42.682;23.294;2023-12-29T13:15:05;94929.41;;;27.61;23.78